Time;durP1;ratioP1;P1;durP2;ratioP2;P2;SDS_P1;SDS_P2;PMS_P1;PMS_P2;Temp;Humidity;BMP_temperature;BMP_pressure;BME280_temperature;BME280_humidity;BME280_pressure;Samples;Min_cycle;Max_cycle;Signal;HPM_P1;HPM_P2
2023/05/14 00:00:05;;;;;;;9.88;6.05;;;11.80;84.40;;;;;;5051113;28;20032;-44
2023/05/14 00:02:35;;;;;;;6.97;6.10;;;11.80;84.40;;;;;;5051007;28;20079;-44
2023/05/14 00:05:04;;;;;;;7.82;6.97;;;11.90;84.40;;;;;;5033693;28;20030;-44
2023/05/14 00:07:30;;;;;;;9.48;6.45;;;11.80;84.40;;;;;;5047967;28;20042;-43
2023/05/14 00:09:57;;;;;;;6.57;5.78;;;11.70;84.40;;;;;;5051276;28;20028;-47
2023/05/14 00:12:25;;;;;;;7.32;6.60;;;11.70;84.30;;;;;;5036965;28;20350;-44
2023/05/14 00:14:53;;;;;;;7.35;5.43;;;11.70;84.30;;;;;;5043157;28;20108;-43
2023/05/14 00:17:20;;;;;;;7.05;5.47;;;11.60;84.30;;;;;;5042965;28;20210;-45
2023/05/14 00:19:45;;;;;;;7.30;6.35;;;11.60;84.40;;;;;;5049601;28;20029;-44
2023/05/14 00:22:17;;;;;;;6.95;6.07;;;11.60;84.60;;;;;;5055426;28;20044;-44
2023/05/14 00:24:43;;;;;;;7.43;6.35;;;11.60;84.50;;;;;;5049545;28;20056;-47
2023/05/14 00:27:12;;;;;;;8.60;6.30;;;11.50;84.50;;;;;;5055255;28;20056;-44
2023/05/14 00:29:37;;;;;;;7.20;6.18;;;11.50;84.60;;;;;;5049980;28;20017;-44
2023/05/14 00:32:06;;;;;;;8.40;6.78;;;11.40;84.70;;;;;;5034416;28;20025;-45
2023/05/14 00:34:34;;;;;;;7.05;5.72;;;11.40;84.80;;;;;;5046091;28;20052;-47
2023/05/14 00:37:03;;;;;;;8.07;6.80;;;11.40;85.00;;;;;;5037597;28;20051;-44
2023/05/14 00:39:33;;;;;;;8.10;7.07;;;11.40;85.10;;;;;;5045651;28;20034;-46
2023/05/14 00:41:59;;;;;;;7.38;6.28;;;11.30;85.30;;;;;;5036000;28;20116;-46
2023/05/14 00:44:36;;;;;;;7.80;7.00;;;11.30;85.50;;;;;;5036012;28;20025;-46
2023/05/14 00:47:04;;;;;;;8.50;7.65;;;11.20;85.70;;;;;;5049528;28;20037;-44
2023/05/14 00:49:33;;;;;;;8.73;7.82;;;11.20;85.90;;;;;;5054283;28;20032;-45
2023/05/14 00:51:59;;;;;;;10.35;7.10;;;11.10;86.10;;;;;;5056178;28;20028;-44
2023/05/14 00:54:26;;;;;;;7.97;7.18;;;11.20;86.20;;;;;;5051376;28;20048;-45
2023/05/14 00:56:55;;;;;;;9.13;6.90;;;11.10;86.20;;;;;;5018829;28;20029;-43
2023/05/14 00:59:24;;;;;;;10.18;7.22;;;11.10;86.30;;;;;;5038738;28;20029;-46
2023/05/14 01:01:53;;;;;;;8.45;7.28;;;11.10;86.40;;;;;;5044837;28;20060;-44
2023/05/14 01:04:19;;;;;;;9.57;7.10;;;11.10;86.40;;;;;;5014292;28;20116;-45
2023/05/14 01:07:09;;;;;;;7.85;6.28;;;11.00;86.50;;;;;;5049239;28;20105;-45
2023/05/14 01:09:56;;;;;;;8.63;7.10;;;10.90;86.50;;;;;;5047626;28;20055;-44
2023/05/14 01:13:13;;;;;;;9.75;8.25;;;10.90;86.70;;;;;;5049130;28;20044;-47
2023/05/14 01:15:52;;;;;;;7.95;7.15;;;10.90;86.80;;;;;;4993252;28;20033;-46
2023/05/14 01:18:20;;;;;;;9.00;8.10;;;10.90;86.80;;;;;;5048053;28;20088;-45
2023/05/14 01:20:50;;;;;;;9.00;7.85;;;10.90;86.90;;;;;;5020602;28;20037;-45
2023/05/14 01:23:17;;;;;;;8.07;7.28;;;10.80;87.00;;;;;;5047593;28;20053;-50
2023/05/14 01:25:44;;;;;;;8.32;7.53;;;10.80;87.10;;;;;;5031943;28;20037;-42
2023/05/14 01:28:31;;;;;;;8.95;8.07;;;10.80;87.20;;;;;;5039500;28;20022;-46
2023/05/14 01:31:15;;;;;;;8.45;7.55;;;10.80;87.30;;;;;;5050404;28;20029;-45
2023/05/14 01:33:48;;;;;;;10.13;8.32;;;10.80;87.40;;;;;;5034390;28;20099;-44
2023/05/14 01:36:15;;;;;;;9.43;8.30;;;10.70;87.30;;;;;;5030895;28;20454;-43
2023/05/14 01:38:44;;;;;;;9.27;8.32;;;10.70;87.30;;;;;;5055075;28;20439;-43
2023/05/14 01:41:14;;;;;;;12.67;9.20;;;10.80;87.30;;;;;;5037361;28;20075;-43
2023/05/14 01:43:41;;;;;;;8.88;8.02;;;10.80;87.40;;;;;;5032883;28;20032;-44
2023/05/14 01:46:11;;;;;;;9.98;8.93;;;10.70;87.30;;;;;;5052705;28;20332;-43
2023/05/14 01:48:40;;;;;;;9.15;8.25;;;10.70;87.30;;;;;;5020336;28;20112;-44
2023/05/14 01:51:05;;;;;;;9.57;8.68;;;10.70;87.30;;;;;;5034668;28;20406;-43
2023/05/14 01:53:33;;;;;;;8.45;7.65;;;10.70;87.40;;;;;;5054065;28;20036;-43
2023/05/14 01:56:01;;;;;;;14.45;8.25;;;10.70;87.60;;;;;;5054686;28;20354;-43
2023/05/14 01:58:28;;;;;;;10.65;8.77;;;10.80;87.70;;;;;;5025573;28;20080;-47
2023/05/14 02:00:55;;;;;;;10.00;9.02;;;10.80;87.70;;;;;;5043444;28;20041;-43
2023/05/14 02:03:22;;;;;;;9.07;8.18;;;10.80;87.90;;;;;;5053842;28;20385;-42
2023/05/14 02:05:48;;;;;;;10.57;8.73;;;10.80;88.10;;;;;;5036832;28;20033;-43
2023/05/14 02:08:16;;;;;;;8.77;7.88;;;10.80;88.20;;;;;;5048225;28;20025;-44
2023/05/14 02:10:43;;;;;;;8.93;8.13;;;10.90;88.20;;;;;;5054393;28;20451;-44
2023/05/14 02:13:11;;;;;;;10.00;8.73;;;10.90;88.30;;;;;;5053152;28;20402;-45
2023/05/14 02:15:42;;;;;;;11.27;10.07;;;10.90;88.20;;;;;;5035720;28;20103;-47
2023/05/14 02:18:09;;;;;;;12.40;9.15;;;10.90;88.30;;;;;;5049139;28;20060;-49
2023/05/14 02:20:36;;;;;;;9.25;8.35;;;10.90;88.40;;;;;;5045638;28;20051;-43
2023/05/14 02:23:04;;;;;;;10.05;8.93;;;10.90;88.40;;;;;;5034756;28;20032;-47
2023/05/14 02:25:31;;;;;;;9.50;8.60;;;10.90;88.40;;;;;;5044774;28;20409;-47
2023/05/14 02:27:56;;;;;;;9.60;8.63;;;10.90;88.50;;;;;;5038690;28;20029;-43
2023/05/14 02:30:24;;;;;;;11.88;9.10;;;10.90;88.50;;;;;;5035709;28;20094;-43
2023/05/14 02:32:51;;;;;;;9.52;8.57;;;11.00;88.50;;;;;;5050640;28;20033;-44
2023/05/14 02:35:18;;;;;;;10.93;9.10;;;11.00;88.50;;;;;;5031219;28;20025;-43
2023/05/14 02:37:45;;;;;;;9.15;8.27;;;11.00;88.50;;;;;;5047444;28;20111;-48
2023/05/14 02:40:11;;;;;;;10.88;9.75;;;11.00;88.50;;;;;;5053757;28;20029;-46
2023/05/14 02:42:39;;;;;;;12.63;9.75;;;11.00;88.50;;;;;;5048594;28;20021;-44
2023/05/14 02:45:06;;;;;;;11.65;9.05;;;11.00;88.70;;;;;;5051862;28;20444;-44
2023/05/14 02:47:37;;;;;;;11.43;8.48;;;11.00;88.70;;;;;;5020590;28;20038;-42
2023/05/14 02:50:05;;;;;;;10.75;9.70;;;11.00;88.60;;;;;;5029427;28;20056;-47
2023/05/14 02:52:32;;;;;;;9.63;8.63;;;11.00;88.60;;;;;;5052976;28;20032;-43
2023/05/14 02:54:59;;;;;;;9.95;9.05;;;11.00;88.60;;;;;;5047458;28;20059;-44
2023/05/14 02:57:25;;;;;;;16.73;8.85;;;11.00;88.60;;;;;;5052037;28;20044;-43
2023/05/14 02:59:52;;;;;;;10.73;9.73;;;11.00;88.50;;;;;;5054938;28;20029;-48
2023/05/14 03:02:20;;;;;;;10.75;9.65;;;11.00;88.70;;;;;;5047276;28;20021;-43
2023/05/14 03:04:48;;;;;;;12.93;9.38;;;11.00;88.70;;;;;;5052703;28;20032;-43
2023/05/14 03:07:16;;;;;;;11.40;9.82;;;11.00;88.70;;;;;;5052525;28;20040;-43
2023/05/14 03:09:43;;;;;;;11.00;9.73;;;11.00;88.90;;;;;;5053079;28;20025;-43
2023/05/14 03:12:09;;;;;;;11.23;10.02;;;11.00;88.80;;;;;;5044357;28;20044;-44
2023/05/14 03:14:36;;;;;;;10.80;9.70;;;11.00;88.80;;;;;;5053179;28;20040;-41
2023/05/14 03:17:06;;;;;;;12.32;11.05;;;10.90;88.80;;;;;;5042871;28;20065;-43
2023/05/14 03:19:35;;;;;;;11.77;10.52;;;10.90;88.90;;;;;;5035817;28;20034;-43
2023/05/14 03:22:03;;;;;;;11.07;10.00;;;10.90;88.90;;;;;;5033281;28;20099;-43
2023/05/14 03:24:31;;;;;;;13.02;11.68;;;10.90;89.00;;;;;;5041309;28;20025;-43
2023/05/14 03:26:57;;;;;;;11.27;10.18;;;10.90;88.90;;;;;;5037938;28;20045;-43
2023/05/14 03:29:23;;;;;;;11.75;10.52;;;10.90;89.00;;;;;;5030372;28;20034;-42
2023/05/14 03:31:50;;;;;;;14.77;10.43;;;10.90;88.90;;;;;;5047233;28;20037;-43
2023/05/14 03:34:17;;;;;;;12.65;11.45;;;10.90;88.90;;;;;;5043066;28;20033;-43
2023/05/14 03:36:44;;;;;;;11.88;10.25;;;10.90;88.90;;;;;;5015674;28;20033;-43
2023/05/14 03:39:14;;;;;;;12.35;11.18;;;10.90;88.90;;;;;;5040068;28;20029;-42
2023/05/14 03:41:41;;;;;;;11.48;10.27;;;10.90;89.00;;;;;;5038669;28;20033;-45
2023/05/14 03:44:08;;;;;;;12.98;11.45;;;10.90;89.10;;;;;;5039874;28;20044;-44
2023/05/14 03:46:34;;;;;;;11.65;10.55;;;10.90;89.10;;;;;;5044889;28;20021;-45
2023/05/14 03:49:02;;;;;;;13.73;12.25;;;10.90;89.10;;;;;;5034591;28;20037;-42
2023/05/14 03:51:30;;;;;;;11.23;10.10;;;10.90;89.20;;;;;;5046711;28;20032;-43
2023/05/14 03:54:03;;;;;;;11.75;10.55;;;10.90;89.10;;;;;;5032925;28;20047;-42
2023/05/14 03:56:29;;;;;;;12.50;10.18;;;10.90;89.10;;;;;;5021733;28;20029;-43
2023/05/14 03:58:59;;;;;;;12.50;10.82;;;11.00;89.10;;;;;;5028269;28;20033;-44
2023/05/14 04:01:26;;;;;;;11.98;10.77;;;11.00;89.10;;;;;;5045104;28;20040;-45
2023/05/14 04:03:52;;;;;;;11.68;10.55;;;11.00;89.30;;;;;;5050173;28;20048;-42
2023/05/14 04:06:19;;;;;;;12.02;10.93;;;11.00;89.40;;;;;;5048305;28;20095;-43
2023/05/14 04:08:47;;;;;;;14.80;12.82;;;11.00;89.50;;;;;;5031022;28;20124;-42
2023/05/14 04:11:14;;;;;;;11.60;10.40;;;11.10;89.50;;;;;;5042194;28;20025;-42
2023/05/14 04:13:41;;;;;;;11.45;10.25;;;11.10;89.60;;;;;;5010690;28;20041;-42
2023/05/14 04:16:08;;;;;;;10.98;9.90;;;11.10;89.80;;;;;;5032667;28;20040;-43
2023/05/14 04:18:34;;;;;;;13.63;11.48;;;11.20;89.90;;;;;;5038217;28;20072;-42
2023/05/14 04:21:01;;;;;;;12.40;11.10;;;11.20;89.90;;;;;;5048761;28;20044;-42
2023/05/14 04:23:30;;;;;;;12.15;10.77;;;11.30;89.90;;;;;;5031896;28;20112;-42
2023/05/14 04:25:56;;;;;;;18.13;14.65;;;11.30;89.90;;;;;;5046139;28;20017;-43
2023/05/14 04:28:23;;;;;;;13.73;12.07;;;11.40;90.00;;;;;;5042108;28;20032;-44
2023/05/14 04:30:52;;;;;;;13.70;11.48;;;11.40;90.10;;;;;;5038263;28;20037;-42
2023/05/14 04:33:20;;;;;;;12.15;10.95;;;11.50;90.30;;;;;;5049701;28;20465;-44
2023/05/14 04:35:46;;;;;;;13.50;12.30;;;11.50;90.30;;;;;;5032555;28;20091;-42
2023/05/14 04:38:13;;;;;;;12.15;11.02;;;11.60;90.20;;;;;;5040709;28;20439;-43
2023/05/14 04:40:43;;;;;;;12.45;11.35;;;11.70;90.30;;;;;;5040315;28;20048;-41
2023/05/14 04:43:09;;;;;;;11.82;10.73;;;11.80;90.30;;;;;;5050723;28;20389;-42
2023/05/14 04:45:36;;;;;;;11.57;10.38;;;11.80;90.10;;;;;;5034229;28;20112;-44
2023/05/14 04:48:06;;;;;;;12.00;10.45;;;11.90;90.20;;;;;;5046319;28;20025;-42
2023/05/14 04:50:34;;;;;;;11.75;10.63;;;11.90;90.20;;;;;;5032997;28;20148;-41
2023/05/14 04:53:00;;;;;;;12.25;11.05;;;12.00;90.10;;;;;;5023310;28;20113;-43
2023/05/14 04:55:28;;;;;;;14.00;12.75;;;12.10;90.10;;;;;;5025774;28;20190;-42
2023/05/14 04:57:55;;;;;;;12.48;11.27;;;12.20;90.20;;;;;;5033979;28;20025;-45
2023/05/14 05:00:21;;;;;;;13.80;12.48;;;12.20;90.20;;;;;;5052398;28;20036;-43
2023/05/14 05:02:49;;;;;;;15.05;13.40;;;12.30;90.10;;;;;;5033380;28;20033;-43
2023/05/14 05:05:19;;;;;;;14.10;12.75;;;12.40;90.00;;;;;;5037331;28;20060;-44
2023/05/14 05:07:46;;;;;;;13.80;12.50;;;12.50;90.10;;;;;;5039712;28;20021;-43
2023/05/14 05:10:14;;;;;;;14.93;13.30;;;12.50;89.90;;;;;;5050401;28;20090;-43
2023/05/14 05:12:41;;;;;;;14.35;12.82;;;12.60;89.70;;;;;;5054301;28;20028;-42
2023/05/14 05:15:11;;;;;;;11.88;10.68;;;12.70;89.20;;;;;;5046883;28;20047;-42
2023/05/14 05:17:38;;;;;;;12.38;11.07;;;12.80;88.80;;;;;;5052185;28;20037;-43
2023/05/14 05:20:08;;;;;;;12.65;11.35;;;12.90;88.70;;;;;;5045795;28;20037;-44
2023/05/14 05:22:36;;;;;;;14.55;11.45;;;12.90;88.00;;;;;;5055556;28;20024;-43
2023/05/14 05:25:05;;;;;;;12.18;10.88;;;13.00;87.10;;;;;;5055098;28;20029;-43
2023/05/14 05:27:33;;;;;;;14.68;13.10;;;13.10;87.20;;;;;;5047598;28;20037;-42
2023/05/14 05:30:00;;;;;;;12.60;11.40;;;13.20;86.70;;;;;;5041848;28;20034;-43
2023/05/14 05:32:27;;;;;;;11.68;10.57;;;13.20;86.10;;;;;;5031430;28;20116;-44
2023/05/14 05:34:53;;;;;;;12.68;11.38;;;13.20;85.60;;;;;;5045175;28;20342;-43
2023/05/14 05:37:18;;;;;;;14.95;10.98;;;13.30;85.00;;;;;;5042797;28;20017;-43
2023/05/14 05:39:47;;;;;;;10.20;9.25;;;13.30;84.00;;;;;;5042927;28;20020;-44
2023/05/14 05:42:14;;;;;;;10.13;9.15;;;13.30;84.00;;;;;;5046860;28;20473;-45
2023/05/14 05:44:44;;;;;;;11.82;10.35;;;13.40;83.60;;;;;;5047824;28;20121;-44
2023/05/14 05:47:11;;;;;;;11.57;8.73;;;13.40;82.90;;;;;;5048372;28;20504;-45
2023/05/14 05:49:42;;;;;;;10.38;9.38;;;13.40;82.40;;;;;;5028473;28;20463;-44
2023/05/14 05:52:09;;;;;;;10.88;9.32;;;13.50;82.70;;;;;;5029289;28;20108;-49
2023/05/14 05:54:38;;;;;;;9.75;8.75;;;13.50;82.00;;;;;;5028617;28;20087;-44
2023/05/14 05:57:05;;;;;;;11.10;8.33;;;13.50;81.40;;;;;;5046374;28;20130;-46
2023/05/14 05:59:32;;;;;;;9.70;8.90;;;13.60;81.30;;;;;;5030301;28;20148;-45
2023/05/14 06:02:00;;;;;;;9.82;8.63;;;13.60;81.00;;;;;;5047084;28;20470;-44
2023/05/14 06:04:28;;;;;;;10.45;8.23;;;13.70;80.90;;;;;;5045433;28;20401;-46
2023/05/14 06:06:54;;;;;;;11.82;7.60;;;13.70;81.10;;;;;;5052035;28;20021;-44
2023/05/14 06:09:24;;;;;;;8.20;7.40;;;13.80;80.90;;;;;;5048685;28;20450;-45
2023/05/14 06:11:52;;;;;;;9.20;8.00;;;13.90;81.40;;;;;;5049550;28;20386;-44
2023/05/14 06:14:19;;;;;;;9.02;7.90;;;14.00;81.30;;;;;;5052283;28;20033;-46
2023/05/14 06:16:46;;;;;;;11.27;8.60;;;14.10;81.00;;;;;;5033191;28;20457;-48
2023/05/14 06:19:13;;;;;;;8.88;7.97;;;14.20;80.80;;;;;;5049581;28;20064;-45
2023/05/14 06:21:43;;;;;;;7.97;7.18;;;14.30;80.10;;;;;;5050402;28;20104;-46
2023/05/14 06:24:13;;;;;;;8.70;7.78;;;14.30;79.00;;;;;;5047829;28;20078;-44
2023/05/14 06:26:42;;;;;;;8.23;7.05;;;14.40;79.00;;;;;;5031982;28;20033;-45
2023/05/14 06:29:10;;;;;;;10.80;8.27;;;14.50;78.90;;;;;;5043049;28;20065;-47
2023/05/14 06:31:37;;;;;;;11.85;8.50;;;14.60;78.70;;;;;;5047214;28;20039;-45
2023/05/14 06:34:05;;;;;;;10.25;7.72;;;14.70;77.60;;;;;;5021503;28;20033;-45
2023/05/14 06:36:32;;;;;;;8.70;7.32;;;14.90;77.50;;;;;;5040837;28;20060;-47
2023/05/14 06:39:00;;;;;;;9.32;7.22;;;14.90;76.50;;;;;;5034604;28;20033;-47
2023/05/14 06:41:30;;;;;;;7.70;6.90;;;14.90;76.50;;;;;;5044777;28;20443;-46
2023/05/14 06:44:02;;;;;;;9.70;7.45;;;14.90;75.80;;;;;;5048242;28;20037;-46
2023/05/14 06:46:30;;;;;;;8.77;7.30;;;15.00;76.00;;;;;;5045024;28;20025;-46
2023/05/14 06:48:58;;;;;;;8.05;7.00;;;15.10;75.80;;;;;;5044026;28;20025;-46
2023/05/14 06:51:25;;;;;;;8.73;7.55;;;15.10;75.60;;;;;;5049038;28;20051;-45
2023/05/14 06:53:51;;;;;;;9.52;7.50;;;15.10;75.40;;;;;;5049104;28;20087;-46
2023/05/14 06:56:17;;;;;;;7.40;6.70;;;15.20;75.60;;;;;;5053345;28;20035;-48
2023/05/14 06:58:45;;;;;;;7.35;5.95;;;15.30;76.00;;;;;;5035161;28;20041;-48
2023/05/14 07:01:12;;;;;;;8.65;7.57;;;15.40;75.50;;;;;;5046812;28;20033;-46
2023/05/14 07:03:40;;;;;;;9.23;7.25;;;15.40;75.00;;;;;;5048738;28;20031;-46
2023/05/14 07:06:06;;;;;;;7.15;6.18;;;15.40;74.70;;;;;;5047837;28;20018;-48
2023/05/14 07:08:33;;;;;;;6.90;5.82;;;15.40;74.20;;;;;;5048205;28;20021;-46
2023/05/14 07:11:01;;;;;;;8.45;7.65;;;15.50;74.40;;;;;;5049475;28;20023;-46
2023/05/14 07:13:29;;;;;;;9.30;6.90;;;15.60;73.70;;;;;;5046428;28;20122;-46
2023/05/14 07:15:56;;;;;;;8.38;7.50;;;15.70;74.80;;;;;;5031495;28;20029;-47
2023/05/14 07:18:25;;;;;;;7.28;6.53;;;15.80;74.20;;;;;;5022850;28;20053;-46
2023/05/14 07:20:52;;;;;;;8.07;7.28;;;15.90;74.00;;;;;;5007814;28;20038;-46
2023/05/14 07:23:28;;;;;;;7.78;6.90;;;16.10;74.30;;;;;;5043986;28;20496;-46
2023/05/14 07:25:54;;;;;;;8.18;6.93;;;16.10;73.50;;;;;;5032219;28;20119;-46
2023/05/14 07:28:21;;;;;;;7.43;6.32;;;16.20;72.40;;;;;;5050463;28;20021;-46
2023/05/14 07:30:47;;;;;;;10.25;6.55;;;16.20;72.20;;;;;;5046369;28;20147;-47
2023/05/14 07:33:15;;;;;;;7.88;6.22;;;16.20;71.60;;;;;;5050002;28;20162;-48
2023/05/14 07:35:42;;;;;;;8.90;6.10;;;16.30;72.60;;;;;;5045382;28;20065;-46
2023/05/14 07:38:12;;;;;;;6.88;5.90;;;16.40;72.90;;;;;;5028450;28;20033;-47
2023/05/14 07:40:41;;;;;;;8.38;5.35;;;16.50;72.90;;;;;;5045919;28;20029;-46
2023/05/14 07:43:09;;;;;;;10.48;6.88;;;16.60;72.90;;;;;;5031087;28;20056;-47
2023/05/14 07:45:36;;;;;;;7.90;4.95;;;16.60;71.00;;;;;;5024722;28;20036;-47
2023/05/14 07:48:03;;;;;;;6.78;6.07;;;16.80;71.50;;;;;;5015529;28;20025;-46
2023/05/14 07:50:31;;;;;;;7.75;5.53;;;16.90;71.10;;;;;;5028922;28;20452;-48
2023/05/14 07:52:58;;;;;;;6.57;5.18;;;17.00;71.20;;;;;;5048852;28;20025;-50
2023/05/14 07:55:28;;;;;;;6.53;5.32;;;17.10;70.10;;;;;;5029724;28;20025;-46
2023/05/14 07:58:02;;;;;;;6.95;5.10;;;17.30;69.30;;;;;;5047781;28;20040;-47
2023/05/14 08:00:29;;;;;;;6.55;4.97;;;17.40;69.90;;;;;;5046729;28;20079;-53
2023/05/14 08:02:56;;;;;;;5.57;4.95;;;17.60;69.20;;;;;;5047319;28;20025;-49
2023/05/14 08:05:22;;;;;;;7.40;5.25;;;17.70;68.80;;;;;;5047235;28;20170;-50
2023/05/14 08:07:49;;;;;;;5.68;4.60;;;17.70;68.20;;;;;;5007659;28;20557;-46
2023/05/14 08:10:15;;;;;;;5.85;4.55;;;17.70;68.20;;;;;;5029749;28;20078;-47
2023/05/14 08:12:45;;;;;;;5.72;4.55;;;17.70;69.00;;;;;;5047055;28;20044;-47
2023/05/14 08:15:11;;;;;;;;;;;17.90;69.40;;;;;;5048343;28;20033;-46
2023/05/14 08:17:38;;;;;;;5.13;4.53;;;17.80;67.30;;;;;;5043252;28;19913;-51
2023/05/14 08:20:05;;;;;;;7.10;5.32;;;17.90;68.20;;;;;;5050872;28;20033;-50
2023/05/14 08:22:31;;;;;;;7.88;5.43;;;18.00;66.80;;;;;;5048494;28;20469;-48
2023/05/14 08:24:59;;;;;;;5.75;4.90;;;18.00;65.90;;;;;;5027105;28;20090;-50
2023/05/14 08:27:26;;;;;;;7.28;5.90;;;18.20;65.30;;;;;;5050133;28;20029;-48
2023/05/14 08:29:53;;;;;;;8.43;4.93;;;18.40;65.00;;;;;;5031997;28;20025;-49
2023/05/14 08:32:19;;;;;;;8.48;4.88;;;18.60;64.30;;;;;;5050677;28;20036;-47
2023/05/14 08:34:46;;;;;;;5.50;4.20;;;18.90;63.20;;;;;;5048921;28;20049;-48
2023/05/14 08:37:13;;;;;;;5.13;4.53;;;19.40;63.60;;;;;;5038172;28;20025;-47
2023/05/14 08:39:40;;;;;;;6.88;4.63;;;19.80;62.70;;;;;;5025213;28;20811;-47
2023/05/14 08:42:13;;;;;;;7.57;4.85;;;20.10;62.70;;;;;;5035640;28;20044;-51
2023/05/14 08:44:51;;;;;;;4.75;4.03;;;20.40;62.30;;;;;;5040430;28;20103;-49
2023/05/14 08:47:20;;;;;;;7.60;4.88;;;20.90;58.20;;;;;;5027332;28;20324;-47
2023/05/14 08:50:11;;;;;;;5.93;4.32;;;21.10;57.90;;;;;;5049492;28;20030;-49
2023/05/14 08:52:38;;;;;;;5.88;4.13;;;21.30;57.70;;;;;;5036315;28;20117;-47
2023/05/14 08:55:05;;;;;;;5.05;3.95;;;21.60;57.90;;;;;;5045627;28;20488;-53
2023/05/14 08:57:36;;;;;;;5.88;4.00;;;21.40;55.40;;;;;;5054746;28;20033;-49
2023/05/14 09:00:12;;;;;;;6.00;4.28;;;21.30;56.20;;;;;;5050262;28;20033;-48
2023/05/14 09:02:41;;;;;;;5.25;4.75;;;21.40;56.90;;;;;;5033528;28;20045;-51
2023/05/14 09:05:08;;;;;;;;;;;21.60;56.90;;;;;;5053936;28;20037;-48
2023/05/14 09:07:35;;;;;;;15.77;4.45;;;21.80;55.80;;;;;;5025251;28;19928;-49
2023/05/14 09:10:05;;;;;;;5.10;4.22;;;21.80;55.20;;;;;;5006321;28;20034;-50
2023/05/14 09:12:31;;;;;;;;;;;22.20;54.80;;;;;;5035955;28;20041;-49
2023/05/14 09:14:57;;;;;;;4.43;4.00;;;22.20;52.90;;;;;;5017747;28;20342;-50
2023/05/14 09:17:26;;;;;;;6.55;4.57;;;22.10;53.80;;;;;;5049177;28;20106;-47
2023/05/14 09:19:53;;;;;;;6.70;5.20;;;21.80;54.00;;;;;;5052515;28;20040;-49
2023/05/14 09:22:22;;;;;;;5.07;3.83;;;21.50;54.50;;;;;;5045168;28;20040;-48
2023/05/14 09:25:12;;;;;;;4.75;4.25;;;21.10;56.10;;;;;;5036666;28;20025;-49
2023/05/14 09:27:40;;;;;;;5.75;3.42;;;20.80;56.40;;;;;;5050400;28;20032;-47
2023/05/14 09:30:12;;;;;;;6.22;3.60;;;20.70;55.50;;;;;;5044670;28;20032;-48
2023/05/14 09:32:43;;;;;;;5.75;3.70;;;20.70;57.30;;;;;;5049616;28;20025;-49
2023/05/14 09:35:15;;;;;;;4.75;3.42;;;20.80;56.60;;;;;;5044877;28;20044;-49
2023/05/14 09:37:48;;;;;;;6.95;3.35;;;20.90;57.60;;;;;;5016790;28;20033;-49
2023/05/14 09:40:16;;;;;;;4.95;4.03;;;21.10;56.30;;;;;;5053777;28;20029;-51
2023/05/14 09:42:43;;;;;;;5.20;3.60;;;21.40;57.00;;;;;;5033027;28;20410;-47
2023/05/14 09:45:13;;;;;;;7.22;3.22;;;21.60;54.60;;;;;;5016604;28;20041;-47
2023/05/14 09:47:39;;;;;;;6.40;3.35;;;21.90;53.70;;;;;;5047409;28;20115;-50
2023/05/14 09:50:06;;;;;;;5.55;3.53;;;22.00;54.10;;;;;;5047733;28;20032;-49
2023/05/14 09:52:44;;;;;;;4.80;3.53;;;21.90;53.10;;;;;;5032392;28;20673;-49
2023/05/14 09:55:12;;;;;;;4.80;2.78;;;21.90;54.00;;;;;;5047108;28;20021;-49
2023/05/14 09:57:39;;;;;;;5.55;3.08;;;22.10;54.70;;;;;;5025261;28;20118;-47
2023/05/14 10:00:08;;;;;;;5.82;3.38;;;22.40;55.40;;;;;;5046608;28;20017;-47
2023/05/14 10:02:42;;;;;;;4.38;3.20;;;22.40;52.30;;;;;;5030025;28;20037;-47
2023/05/14 10:05:14;;;;;;;5.70;2.70;;;22.40;52.10;;;;;;5051428;28;20029;-50
2023/05/14 10:08:35;;;;;;;5.15;3.05;;;22.60;51.40;;;;;;5028608;28;20034;-51
2023/05/14 10:11:08;;;;;;;6.75;3.53;;;22.70;51.00;;;;;;5006616;28;20035;-48
2023/05/14 10:13:50;;;;;;;5.65;2.90;;;22.30;51.40;;;;;;5030966;28;20028;-50
2023/05/14 10:16:33;;;;;;;4.15;2.50;;;22.10;50.20;;;;;;5034721;28;20123;-47
2023/05/14 10:19:15;;;;;;;5.20;3.17;;;22.10;51.70;;;;;;5041528;28;20479;-47
2023/05/14 10:21:46;;;;;;;5.63;3.20;;;22.50;50.40;;;;;;5031219;28;20363;-47
2023/05/14 10:24:13;;;;;;;6.07;3.03;;;23.10;50.10;;;;;;5036027;28;20529;-48
2023/05/14 10:26:40;;;;;;;3.83;3.08;;;23.40;50.40;;;;;;5030610;28;20037;-50
2023/05/14 10:29:12;;;;;;;4.10;2.85;;;23.80;47.60;;;;;;5032091;28;20024;-49
2023/05/14 10:31:54;;;;;;;6.55;2.38;;;23.70;48.30;;;;;;5026414;28;20405;-48
2023/05/14 10:34:45;;;;;;;3.05;2.42;;;23.70;45.60;;;;;;5027091;28;20068;-49
2023/05/14 10:37:30;;;;;;;7.05;3.17;;;23.70;46.00;;;;;;5041914;28;20120;-49
2023/05/14 10:40:05;;;;;;;4.43;2.95;;;23.90;46.30;;;;;;5049905;28;20087;-48
2023/05/14 10:42:39;;;;;;;5.45;2.70;;;23.80;46.70;;;;;;5044766;28;20037;-48
2023/05/14 10:45:09;;;;;;;4.65;2.47;;;23.80;48.40;;;;;;5051315;28;20033;-47
2023/05/14 10:47:42;;;;;;;3.78;2.85;;;24.10;44.70;;;;;;5031187;28;20036;-48
2023/05/14 10:50:11;;;;;;;4.93;2.58;;;24.30;45.10;;;;;;5036022;28;20056;-48
2023/05/14 10:52:45;;;;;;;3.90;2.53;;;24.20;44.60;;;;;;5044569;28;20025;-50
2023/05/14 10:55:16;;;;;;;5.50;3.05;;;24.20;44.50;;;;;;5050674;28;20446;-53
2023/05/14 10:57:45;;;;;;;3.78;2.70;;;24.20;44.40;;;;;;5047965;28;20029;-48
2023/05/14 11:00:13;;;;;;;4.97;2.67;;;24.10;45.40;;;;;;5013465;28;20118;-52
2023/05/14 11:02:57;;;;;;;5.25;3.28;;;24.10;44.30;;;;;;5034286;28;20021;-51
2023/05/14 11:05:26;;;;;;;4.70;2.42;;;24.00;45.40;;;;;;5035371;28;20093;-48
2023/05/14 11:07:59;;;;;;;3.97;2.83;;;23.90;45.80;;;;;;5045506;28;20079;-49
2023/05/14 11:10:28;;;;;;;3.22;2.40;;;23.70;44.40;;;;;;5015727;28;20079;-48
2023/05/14 11:12:58;;;;;;;4.00;3.03;;;23.70;44.50;;;;;;5048535;28;20498;-48
2023/05/14 11:15:27;;;;;;;5.78;3.33;;;23.50;44.00;;;;;;5047212;28;20071;-48
2023/05/14 11:17:54;;;;;;;4.85;3.33;;;23.40;43.50;;;;;;5051229;28;20049;-52
2023/05/14 11:20:21;;;;;;;7.25;3.13;;;22.90;43.80;;;;;;5040020;28;20032;-47
2023/05/14 11:22:54;;;;;;;3.90;2.58;;;22.70;44.20;;;;;;5027944;28;20040;-51
2023/05/14 11:25:21;;;;;;;6.90;3.03;;;22.90;46.60;;;;;;5040960;28;20025;-47
2023/05/14 11:27:49;;;;;;;4.78;2.65;;;23.30;45.10;;;;;;5028144;28;20327;-51
2023/05/14 11:30:18;;;;;;;4.65;2.92;;;23.30;43.90;;;;;;5047065;28;20040;-50
2023/05/14 11:32:48;;;;;;;6.13;3.05;;;23.40;44.40;;;;;;5030752;28;20054;-52
2023/05/14 11:35:24;;;;;;;5.78;3.28;;;23.30;44.70;;;;;;5048090;28;20124;-50
2023/05/14 11:37:52;;;;;;;5.05;3.30;;;23.30;46.60;;;;;;5048064;28;20021;-51
2023/05/14 11:40:20;;;;;;;4.97;2.92;;;23.40;44.00;;;;;;5050038;28;20029;-48
2023/05/14 11:42:51;;;;;;;4.93;2.97;;;23.50;43.00;;;;;;5029829;28;20126;-47
2023/05/14 11:45:31;;;;;;;4.65;2.78;;;23.70;44.40;;;;;;5033873;28;20028;-49
2023/05/14 11:47:59;;;;;;;5.43;2.75;;;23.80;45.00;;;;;;5048923;28;20028;-49
2023/05/14 11:50:26;;;;;;;7.53;3.25;;;23.70;41.90;;;;;;5046424;28;20036;-47
2023/05/14 11:52:59;;;;;;;5.35;3.00;;;23.80;45.50;;;;;;5046895;28;20043;-47
2023/05/14 11:55:24;;;;;;;5.35;3.08;;;23.70;44.00;;;;;;5018204;28;20020;-52
2023/05/14 11:57:52;;;;;;;4.13;3.20;;;23.70;44.20;;;;;;5017251;28;20025;-48
2023/05/14 12:00:21;;;;;;;6.47;3.42;;;23.90;44.60;;;;;;5048945;28;20413;-48
2023/05/14 12:02:52;;;;;;;6.10;3.40;;;23.90;43.80;;;;;;5044456;28;20087;-47
2023/05/14 12:05:19;;;;;;;5.30;3.15;;;23.90;42.50;;;;;;5029250;28;20061;-48
2023/05/14 12:07:46;;;;;;;14.30;3.28;;;23.60;43.90;;;;;;5046306;28;20028;-49
2023/05/14 12:10:12;;;;;;;7.75;3.38;;;23.40;43.40;;;;;;5030351;28;20079;-51
2023/05/14 12:12:42;;;;;;;5.03;2.90;;;23.40;43.70;;;;;;5031282;28;20030;-50
2023/05/14 12:15:26;;;;;;;3.72;2.90;;;23.40;44.70;;;;;;5029320;28;20017;-47
2023/05/14 12:17:53;;;;;;;6.05;2.80;;;23.50;43.90;;;;;;5027168;28;20050;-47
2023/05/14 12:20:19;;;;;;;4.28;2.83;;;23.80;45.70;;;;;;5028432;28;20116;-49
2023/05/14 12:22:47;;;;;;;5.15;3.67;;;23.90;44.50;;;;;;5041886;28;20340;-50
2023/05/14 12:25:15;;;;;;;4.15;3.10;;;23.40;42.40;;;;;;5022400;28;20029;-49
2023/05/14 12:27:44;;;;;;;5.05;3.22;;;23.30;43.50;;;;;;5049206;28;20853;-47
2023/05/14 12:30:13;;;;;;;6.00;3.22;;;23.10;45.70;;;;;;5029770;28;20051;-52
2023/05/14 12:32:41;;;;;;;9.55;3.35;;;23.00;43.60;;;;;;5046085;28;20044;-51
2023/05/14 12:35:11;;;;;;;3.97;3.30;;;23.10;44.20;;;;;;5044325;28;20052;-51
2023/05/14 12:37:38;;;;;;;4.75;3.45;;;23.10;45.50;;;;;;5047942;28;20048;-48
2023/05/14 12:40:11;;;;;;;4.25;3.55;;;23.10;42.50;;;;;;5045746;28;20021;-48
2023/05/14 12:42:38;;;;;;;4.18;3.10;;;23.20;44.00;;;;;;5045633;28;20052;-47
2023/05/14 12:45:07;;;;;;;4.88;2.50;;;23.20;43.30;;;;;;5045160;28;20083;-48
2023/05/14 12:47:34;;;;;;;;;;;23.20;43.30;;;;;;5032679;28;20111;-47
2023/05/14 12:50:01;;;;;;;4.07;2.95;;;22.90;43.90;;;;;;5028170;28;19921;-47
2023/05/14 12:52:29;;;;;;;5.88;2.88;;;23.20;45.30;;;;;;5024557;28;20040;-48